Airfield :
LOGIN :

Register | Disclaimer

   EN    FR    IT 

 










Legend :    VFR   Marginal VFR   IFR   Intensive IFR   Very Intensive IFR
Visi :
Ceiling :
>= 8 km
>= 3000ft
5 to 8 km
1000 to 3000 ft
1500m to 5 km
500 to 1000 ft
800 to 1500m
200 to 500 ft
< 800m
< 200 ft
Symbols :   Thunderstorms  Fog  Heavy snow  Heavy precipitations  Wind > 20 kt
SIGMETs :     Misc.  Thunderstorms  Icing  Turbulence  Mountain Waves  Volcanic Ashes






- Airport Elevation : 1400 ft


LSME - Luzern Emmen

CURRENT METAR :
  • 150550Z 26003KT 190V300 0250 R04/0650V1200U R22/0450N FG VV001 10/10 Q1007 RMK RED

EXPIRED METARs :
  • 150520Z 00000KT 0350 R04/0800N R22/0550V0800D FG VV001 10/10 Q1007 RMK RED
  • 150450Z VRB02KT 0350 R04/0400V0550N R22/0450V0550N FG VV001 10/10 Q1007 RMK RED
  • 150420Z AUTO 00000KT 0450NDV R04/0550V0750N R22/0650V0800D FG VV001 09/09 Q1008 RMK
  • 150350Z AUTO 00000KT 0150NDV R04/0175N R22/0325V0550U FG FEW002 10/10 Q1009 RMK
  • 150320Z AUTO 00000KT 0250NDV R04/0300D R22/0550U FG BKN001 10/10 Q1009 RMK

Expired Forecast.



MET'MAP, your aeronautical weather chart ! - Copyright ORBIFLY December 2007 - Disclaimer

ORBIFLY MET'MAP TEAM :

Programming & Development : Alexandra Zaïnal
Concept & Development : Baudouin d'Aumeries
Co-Development & Prog : Marc-Olivier Méhu
Technical & hardware support : Manuel Goepfert

Contact : metmap@orbifly.com




SOURCES & CREDITS :

   NOAA